createdAt,value
2022-11-22T00:01:08.459Z,12.25
2022-11-22T00:03:42.383Z,12.70
2022-11-22T00:06:17.829Z,12.23
2022-11-22T00:08:51.803Z,11.45
2022-11-22T00:11:26.053Z,11.90
2022-11-22T00:14:00.227Z,12.57
2022-11-22T00:16:34.721Z,12.57
2022-11-22T00:19:08.698Z,12.57
2022-11-22T00:21:44.173Z,13.13
2022-11-22T00:24:18.137Z,13.25
2022-11-22T00:26:52.065Z,12.00
2022-11-22T00:29:26.359Z,11.68
2022-11-22T00:32:00.403Z,11.90
2022-11-22T00:34:34.763Z,12.70
2022-11-22T00:37:10.119Z,13.15
2022-11-22T00:39:43.933Z,12.05
2022-11-22T00:44:51.275Z,12.68
2022-11-22T00:49:58.678Z,12.63
2022-11-22T00:55:08.369Z,13.25
2022-11-22T00:57:42.191Z,13.50
2022-11-22T01:02:49.647Z,13.30
2022-11-22T01:07:58.342Z,12.02
2022-11-22T01:10:32.141Z,13.15
2022-11-22T01:15:39.880Z,12.73
2022-11-22T01:20:47.195Z,12.82
2022-11-22T01:25:56.043Z,12.05
2022-11-22T01:31:03.432Z,13.30
2022-11-22T01:33:37.633Z,12.98
2022-11-22T01:38:46.322Z,13.38
2022-11-22T01:41:20.229Z,13.80
2022-11-22T01:43:54.039Z,13.18
2022-11-22T01:49:08.039Z,12.95
2022-11-22T01:51:43.703Z,14.60
2022-11-22T01:54:23.827Z,12.68
2022-11-22T01:57:00.980Z,13.40
2022-11-22T01:59:36.967Z,14.18
2022-11-22T02:02:10.931Z,13.60
2022-11-22T02:04:45.768Z,14.35
2022-11-22T02:07:25.572Z,13.68
2022-11-22T02:10:00.830Z,13.18
2022-11-22T02:12:37.440Z,13.30
2022-11-22T02:15:13.081Z,12.80
2022-11-22T02:17:46.985Z,13.32
2022-11-22T02:20:20.910Z,13.75
2022-11-22T02:23:02.547Z,13.30
2022-11-22T02:25:46.028Z,14.82
2022-11-22T02:28:19.912Z,13.65
2022-11-22T02:30:53.769Z,13.63
2022-11-22T02:36:01.734Z,14.73
2022-11-22T02:38:36.902Z,13.82
2022-11-22T02:41:13.624Z,12.98
2022-11-22T02:43:49.112Z,13.50
2022-11-22T02:46:26.083Z,11.80
2022-11-22T02:49:00.059Z,13.43
2022-11-22T02:54:07.706Z,12.88
2022-11-22T02:56:43.251Z,14.05
2022-11-22T02:59:17.432Z,13.32
2022-11-22T03:01:51.406Z,12.52
2022-11-22T03:04:28.278Z,13.63
2022-11-22T03:07:02.515Z,13.15
2022-11-22T03:09:36.489Z,13.20
2022-11-22T03:14:45.249Z,13.90
2022-11-22T03:17:19.126Z,12.75
2022-11-22T03:22:26.524Z,11.63
2022-11-22T03:25:00.623Z,12.73
2022-11-22T03:27:36.001Z,11.60
2022-11-22T03:30:10.649Z,12.95
2022-11-22T03:32:44.596Z,13.88
2022-11-22T03:35:18.485Z,12.25
2022-11-22T03:37:52.480Z,12.25
2022-11-22T03:43:02.349Z,12.10
2022-11-22T03:45:36.209Z,12.25
2022-11-22T03:48:10.047Z,12.73
2022-11-22T03:50:43.869Z,11.88
2022-11-22T03:55:51.147Z,13.33
2022-11-22T04:01:00.079Z,13.70
2022-11-22T04:03:34.073Z,13.70
2022-11-22T04:06:07.877Z,12.10
2022-11-22T04:08:42.032Z,12.20
2022-11-22T04:11:15.993Z,12.65
2022-11-22T04:16:42.236Z,13.38
2022-11-22T04:19:16.008Z,12.90
2022-11-22T04:24:39.580Z,13.52
2022-11-22T04:27:13.325Z,12.02
2022-11-22T04:29:48.556Z,12.65
2022-11-22T04:32:40.013Z,12.18
2022-11-22T04:35:15.306Z,12.35
2022-11-22T04:37:52.340Z,12.50
2022-11-22T04:40:26.329Z,11.77
2022-11-22T04:45:52.384Z,12.23
2022-11-22T04:48:26.125Z,13.07
2022-11-22T04:51:17.138Z,12.95
2022-11-22T04:53:50.880Z,13.18
2022-11-22T04:56:25.130Z,13.50
2022-11-22T04:58:58.888Z,13.35
2022-11-22T05:01:34.057Z,13.80
2022-11-22T05:04:07.840Z,14.57
2022-11-22T05:09:15.297Z,12.15
2022-11-22T05:11:49.052Z,12.50
2022-11-22T05:16:57.725Z,13.38
2022-11-22T05:19:31.632Z,11.80
2022-11-22T05:22:05.638Z,13.88
2022-11-22T05:27:11.849Z,12.57
2022-11-22T05:32:20.500Z,12.82
2022-11-22T05:34:54.235Z,12.90
2022-11-22T05:37:28.083Z,11.77
2022-11-22T05:42:35.645Z,11.27
2022-11-22T05:47:45.024Z,10.93
2022-11-22T05:50:19.152Z,12.43
2022-11-22T05:53:03.219Z,11.70
2022-11-22T05:55:37.008Z,12.05
2022-11-22T06:00:44.211Z,10.60
2022-11-22T06:05:53.400Z,11.30
2022-11-22T06:08:27.217Z,12.20
2022-11-22T06:13:40.606Z,12.65
2022-11-22T06:16:15.283Z,12.40
2022-11-22T06:18:50.869Z,11.98
2022-11-22T06:21:26.619Z,12.48
2022-11-22T06:24:00.484Z,11.43
2022-11-22T06:26:39.061Z,13.18
2022-11-22T06:29:13.530Z,15.07
2022-11-22T06:31:47.384Z,16.02
2022-11-22T06:36:57.728Z,17.02
2022-11-22T06:39:31.833Z,17.90
2022-11-22T06:42:06.749Z,19.23
2022-11-22T06:44:40.577Z,18.25
2022-11-22T06:49:49.294Z,19.38
2022-11-22T06:52:23.800Z,22.60
2022-11-22T06:54:57.749Z,20.23
2022-11-22T07:00:06.130Z,23.38
2022-11-22T07:02:39.905Z,24.38
2022-11-22T07:08:06.613Z,23.45
2022-11-22T07:10:41.866Z,21.45
2022-11-22T07:15:56.450Z,20.05
2022-11-22T07:18:30.757Z,21.35
2022-11-22T07:21:12.499Z,21.65
2022-11-22T07:23:49.137Z,19.33
2022-11-22T07:26:25.190Z,19.08
2022-11-22T07:28:59.040Z,18.10
2022-11-22T07:34:06.547Z,19.43
2022-11-22T07:36:41.878Z,18.50
2022-11-22T07:39:15.862Z,23.10
2022-11-22T07:41:49.808Z,23.63
2022-11-22T07:44:23.930Z,22.98
2022-11-22T07:46:57.717Z,24.45
2022-11-22T07:52:07.132Z,25.02
2022-11-22T07:54:44.024Z,22.30
2022-11-22T07:59:51.315Z,25.67
2022-11-22T08:04:58.760Z,24.10
2022-11-22T08:10:08.992Z,25.45
2022-11-22T08:12:43.179Z,25.13
2022-11-22T08:15:18.109Z,23.73
2022-11-22T08:17:52.027Z,22.63
2022-11-22T08:20:26.109Z,23.20
2022-11-22T08:23:01.348Z,21.42
2022-11-22T08:25:35.309Z,22.98
2022-11-22T08:28:09.289Z,22.02
2022-11-22T08:33:16.964Z,23.30
2022-11-22T08:35:51.809Z,21.02
2022-11-22T08:38:27.419Z,19.48
2022-11-22T08:41:01.227Z,19.48
2022-11-22T08:46:08.969Z,18.05
2022-11-22T08:48:42.755Z,18.50
2022-11-22T08:53:51.417Z,17.90
2022-11-22T08:56:25.212Z,19.13
2022-11-22T09:01:32.655Z,20.27
2022-11-22T09:04:06.744Z,20.15
2022-11-22T09:09:38.059Z,23.23
2022-11-22T09:12:12.207Z,25.23
2022-11-22T09:14:46.088Z,29.50
2022-11-22T09:19:53.617Z,27.77
2022-11-22T09:22:28.717Z,23.55
2022-11-22T09:25:04.124Z,26.00
2022-11-22T09:27:37.984Z,27.33
2022-11-22T09:32:46.353Z,29.98
2022-11-22T09:35:20.409Z,28.30
2022-11-22T09:37:54.292Z,28.73
2022-11-22T09:43:16.761Z,29.58
2022-11-22T09:46:06.774Z,25.17
2022-11-22T09:49:09.475Z,26.77
2022-11-22T09:51:49.881Z,26.05
2022-11-22T09:54:28.448Z,25.73
2022-11-22T09:57:10.581Z,25.05
2022-11-22T09:59:48.324Z,25.33
2022-11-22T10:02:26.959Z,22.48
2022-11-22T10:05:03.730Z,21.90
2022-11-22T10:07:44.620Z,22.02
2022-11-22T10:10:22.993Z,21.73
2022-11-22T10:13:03.851Z,20.55
2022-11-22T10:15:46.292Z,21.30
2022-11-22T10:18:24.980Z,20.50
2022-11-22T10:20:58.807Z,19.92
2022-11-22T10:26:20.647Z,19.98
2022-11-22T10:29:10.360Z,19.27
2022-11-22T10:31:55.075Z,16.60
2022-11-22T10:34:41.803Z,18.63
2022-11-22T10:37:22.702Z,18.95
2022-11-22T10:40:15.651Z,18.23
2022-11-22T10:43:19.597Z,17.15
2022-11-22T10:46:04.485Z,17.73
2022-11-22T10:48:46.178Z,16.63
2022-11-22T10:51:26.220Z,17.35
2022-11-22T10:54:11.571Z,16.08
2022-11-22T10:56:51.356Z,16.30
2022-11-22T10:59:38.554Z,16.83
2022-11-22T11:02:33.506Z,15.57
2022-11-22T11:05:13.413Z,15.63
2022-11-22T11:07:56.558Z,15.68
2022-11-22T11:10:38.110Z,15.63
2022-11-22T11:13:21.665Z,15.48
2022-11-22T11:15:59.459Z,15.50
2022-11-22T11:18:42.829Z,15.85
2022-11-22T11:21:17.063Z,14.82
2022-11-22T11:23:54.849Z,14.85
2022-11-22T11:26:32.277Z,14.65
2022-11-22T11:29:42.783Z,14.25
2022-11-22T11:32:18.107Z,13.57
2022-11-22T11:34:57.341Z,14.98
2022-11-22T11:40:30.531Z,13.38
2022-11-22T11:43:20.927Z,13.30
2022-11-22T11:45:55.146Z,12.93
2022-11-22T11:48:30.883Z,12.30
2022-11-22T11:51:14.275Z,12.27
2022-11-22T11:54:00.214Z,12.98
2022-11-22T11:56:41.374Z,12.23
2022-11-22T11:59:22.311Z,11.30
2022-11-22T12:02:00.404Z,11.82
2022-11-22T12:04:37.635Z,10.93
2022-11-22T12:07:21.421Z,11.68
2022-11-22T12:09:57.337Z,12.00
2022-11-22T12:12:43.974Z,11.38
2022-11-22T12:15:22.545Z,11.90
2022-11-22T12:18:01.685Z,12.30
2022-11-22T12:20:44.580Z,13.02
2022-11-22T12:23:26.347Z,13.45
2022-11-22T12:26:03.504Z,12.52
2022-11-22T12:28:39.709Z,14.02
2022-11-22T12:31:24.756Z,13.00
2022-11-22T12:34:02.321Z,14.88
2022-11-22T12:36:45.873Z,15.25
2022-11-22T12:39:26.345Z,13.68
2022-11-22T12:42:05.312Z,14.80
2022-11-22T12:44:43.878Z,14.05
2022-11-22T12:47:22.030Z,12.70
2022-11-22T12:50:01.495Z,13.30
2022-11-22T12:52:42.746Z,14.55
2022-11-22T12:55:22.667Z,17.52
2022-11-22T12:58:04.892Z,16.33
2022-11-22T13:00:45.872Z,13.90
2022-11-22T13:03:28.413Z,16.17
2022-11-22T13:06:07.541Z,16.55
2022-11-22T13:08:52.951Z,14.70
2022-11-22T13:11:34.006Z,14.00
2022-11-22T13:14:19.376Z,15.32
2022-11-22T13:16:57.299Z,16.92
2022-11-22T13:19:32.108Z,15.98
2022-11-22T13:22:16.720Z,17.58
2022-11-22T13:25:10.104Z,17.13
2022-11-22T13:27:48.720Z,14.98
2022-11-22T13:30:24.800Z,15.30
2022-11-22T13:33:01.261Z,17.08
2022-11-22T13:35:36.584Z,16.45
2022-11-22T13:38:16.289Z,16.10
2022-11-22T13:40:51.879Z,19.80
2022-11-22T13:43:55.286Z,16.83
2022-11-22T13:46:55.500Z,16.23
2022-11-22T13:49:48.279Z,17.95
2022-11-22T13:52:54.043Z,19.42
2022-11-22T13:55:36.035Z,16.20
2022-11-22T13:58:52.451Z,18.35
2022-11-22T14:01:58.361Z,18.17
2022-11-22T14:04:43.892Z,15.60
2022-11-22T14:07:38.537Z,16.10
2022-11-22T14:10:34.665Z,17.88
2022-11-22T14:13:31.741Z,18.48
2022-11-22T14:16:20.123Z,16.95
2022-11-22T14:19:00.308Z,19.23
2022-11-22T14:21:51.867Z,16.33
2022-11-22T14:24:37.724Z,16.08
2022-11-22T14:27:24.244Z,15.90
2022-11-22T14:30:18.392Z,14.95
2022-11-22T14:33:02.271Z,15.02
2022-11-22T14:35:37.523Z,14.88
2022-11-22T14:38:33.156Z,15.30
2022-11-22T14:41:44.692Z,14.18
2022-11-22T14:44:20.889Z,13.98
2022-11-22T14:47:00.388Z,13.50
2022-11-22T14:49:43.366Z,14.32
2022-11-22T14:52:22.664Z,14.68
2022-11-22T14:55:00.168Z,12.52
2022-11-22T14:57:38.092Z,13.32
2022-11-22T15:00:19.538Z,12.60
2022-11-22T15:03:17.706Z,12.45
2022-11-22T15:09:10.584Z,13.48
2022-11-22T15:09:40.617Z,13.00
2022-11-22T15:12:26.271Z,12.95
2022-11-22T15:57:54.391Z,50.85
2022-11-22T16:00:30.033Z,50.17
2022-11-22T16:03:06.869Z,48.15
2022-11-22T16:06:06.517Z,52.65
2022-11-22T16:08:36.880Z,62.25
2022-11-22T16:11:21.483Z,80.97
2022-11-22T16:13:55.782Z,97.13
2022-11-22T16:16:31.556Z,102.60
2022-11-22T16:19:22.578Z,116.47
2022-11-22T16:22:00.460Z,117.53
2022-11-22T16:24:35.711Z,102.40
2022-11-22T16:27:16.537Z,98.70
2022-11-22T16:29:53.464Z,92.13
2022-11-22T16:32:27.428Z,86.68
2022-11-22T16:35:27.638Z,76.90
2022-11-22T16:37:55.172Z,75.13
2022-11-22T16:43:09.369Z,68.07
2022-11-22T16:45:43.978Z,63.38
2022-11-22T16:48:35.079Z,60.40
2022-11-22T16:51:14.460Z,60.00
2022-11-22T16:53:50.058Z,55.95
2022-11-22T16:56:27.071Z,50.78
2022-11-22T16:59:01.323Z,49.78
2022-11-22T17:01:35.993Z,46.97
2022-11-22T17:04:21.200Z,41.70
2022-11-22T17:06:55.431Z,40.58
2022-11-22T17:09:29.479Z,40.75
2022-11-22T17:12:05.419Z,39.20
2022-11-22T17:14:39.269Z,37.25
2022-11-22T17:17:13.234Z,36.83
2022-11-22T17:19:53.090Z,37.63
2022-11-22T17:22:30.982Z,35.92
2022-11-22T17:25:05.114Z,35.72
2022-11-22T17:27:41.261Z,33.40
2022-11-22T17:30:16.620Z,33.75
2022-11-22T17:32:50.716Z,30.95
2022-11-22T17:35:24.707Z,31.70
2022-11-22T17:37:59.304Z,31.70
2022-11-22T17:40:33.452Z,30.58
2022-11-22T17:43:10.299Z,29.70
2022-11-22T17:45:45.114Z,29.85
2022-11-22T17:48:19.567Z,28.50
2022-11-22T17:50:53.756Z,27.88
2022-11-22T17:53:27.997Z,26.50
2022-11-22T17:56:10.433Z,27.20
2022-11-22T17:58:46.239Z,24.52
2022-11-22T18:01:22.173Z,24.23
2022-11-22T18:03:57.521Z,24.90
2022-11-22T18:06:32.275Z,24.52
2022-11-22T18:09:06.319Z,25.15
2022-11-22T18:11:40.344Z,23.15
2022-11-22T18:14:15.842Z,22.00
2022-11-22T18:16:49.871Z,21.15
2022-11-22T18:19:24.137Z,22.77
2022-11-22T18:21:58.157Z,20.83
2022-11-22T18:24:32.852Z,19.10
2022-11-22T18:27:06.861Z,19.70
2022-11-22T18:29:43.181Z,19.33
2022-11-22T18:32:17.499Z,18.00
2022-11-22T18:34:51.738Z,19.92
2022-11-22T18:37:26.216Z,19.50
2022-11-22T18:40:00.238Z,18.95
2022-11-22T18:42:35.467Z,18.10
2022-11-22T18:45:12.597Z,18.52
2022-11-22T18:47:46.985Z,17.77
2022-11-22T18:50:21.052Z,17.40
2022-11-22T18:52:55.296Z,18.92
2022-11-22T18:55:29.783Z,17.98
2022-11-22T18:58:03.760Z,16.80
2022-11-22T19:00:39.367Z,16.30
2022-11-22T19:03:13.728Z,15.88
2022-11-22T19:05:47.741Z,16.60
2022-11-22T19:08:21.745Z,14.23
2022-11-22T19:10:59.243Z,15.82
2022-11-22T19:13:34.202Z,15.95
2022-11-22T19:16:11.878Z,15.68
2022-11-22T19:18:47.684Z,13.73
2022-11-22T19:21:23.198Z,15.25
2022-11-22T19:23:57.680Z,13.73
2022-11-22T19:26:31.632Z,13.52
2022-11-22T19:29:05.465Z,13.10
2022-11-22T19:31:40.858Z,13.52
2022-11-22T19:34:15.086Z,14.15
2022-11-22T19:36:49.405Z,14.10
2022-11-22T19:41:56.852Z,12.70
2022-11-22T19:44:31.599Z,12.52
2022-11-22T19:47:07.040Z,12.13
2022-11-22T19:49:40.919Z,12.75
2022-11-22T19:52:14.836Z,12.20
2022-11-22T19:54:48.748Z,13.27
2022-11-22T20:00:00.141Z,12.77
2022-11-22T20:02:35.799Z,15.07
2022-11-22T20:05:10.666Z,14.35
2022-11-22T20:07:45.145Z,14.50
2022-11-22T20:10:19.777Z,13.65
2022-11-22T20:12:54.221Z,15.55
2022-11-22T20:15:28.443Z,14.93
2022-11-22T20:18:04.208Z,14.00
2022-11-22T20:20:38.274Z,13.00
2022-11-22T20:23:12.298Z,14.25
2022-11-22T20:25:46.525Z,13.55
2022-11-22T20:28:21.640Z,12.77
2022-11-22T20:31:04.983Z,12.27
2022-11-22T20:33:42.843Z,12.65
2022-11-22T20:36:18.809Z,11.82
2022-11-22T20:38:53.865Z,12.10
2022-11-22T20:41:29.247Z,11.57
2022-11-22T20:44:03.178Z,11.43
2022-11-22T20:46:38.691Z,10.60
2022-11-22T20:49:14.286Z,11.57
2022-11-22T20:51:48.437Z,11.35
2022-11-22T20:54:22.743Z,11.35
2022-11-22T20:56:56.882Z,10.93
2022-11-22T20:59:31.044Z,10.50
2022-11-22T21:02:09.067Z,11.02
2022-11-22T21:04:44.770Z,10.07
2022-11-22T21:07:18.900Z,11.00
2022-11-22T21:09:53.176Z,9.25
2022-11-22T21:12:27.246Z,10.07
2022-11-22T21:15:01.226Z,10.07
2022-11-22T21:17:50.152Z,10.27
2022-11-22T21:20:31.338Z,9.75
2022-11-22T21:23:05.917Z,9.70
2022-11-22T21:25:39.954Z,8.50
2022-11-22T21:28:14.007Z,8.40
2022-11-22T21:30:48.118Z,9.48
2022-11-22T21:33:22.103Z,8.95
2022-11-22T21:35:57.406Z,10.40
2022-11-22T21:38:31.597Z,9.75
2022-11-22T21:41:32.182Z,9.30
2022-11-22T21:44:01.099Z,10.57
2022-11-22T21:46:35.136Z,10.00
2022-11-22T21:49:09.468Z,10.25
2022-11-22T21:51:44.903Z,9.68
2022-11-22T21:54:18.915Z,8.77
2022-11-22T21:56:52.964Z,9.52
2022-11-22T21:59:27.060Z,9.07
2022-11-22T22:02:01.068Z,8.80
2022-11-22T22:04:35.026Z,8.15
2022-11-22T22:07:29.628Z,8.68
2022-11-22T22:10:06.131Z,8.75
2022-11-22T22:12:41.122Z,7.82
2022-11-22T22:15:16.689Z,8.38
2022-11-22T22:17:54.162Z,8.07
2022-11-22T22:20:28.175Z,7.85
2022-11-22T22:23:03.852Z,7.45
2022-11-22T22:25:41.487Z,6.72
2022-11-22T22:28:15.494Z,6.88
2022-11-22T22:33:23.062Z,8.02
2022-11-22T22:35:57.280Z,7.88
2022-11-22T22:38:33.708Z,7.00
2022-11-22T22:41:08.545Z,7.47
2022-11-22T22:43:44.381Z,6.70
2022-11-22T22:46:19.924Z,6.72
2022-11-22T22:48:56.332Z,6.68
2022-11-22T22:51:33.221Z,7.18
2022-11-22T22:54:10.893Z,8.65
2022-11-22T22:56:45.240Z,6.20
2022-11-22T22:59:19.277Z,6.68
2022-11-22T23:01:53.243Z,6.32
2022-11-22T23:04:27.232Z,6.88
2022-11-22T23:07:01.193Z,7.40
2022-11-22T23:09:36.606Z,7.00
2022-11-22T23:12:13.517Z,7.18
2022-11-22T23:14:48.021Z,7.78
2022-11-22T23:17:22.174Z,6.88
2022-11-22T23:19:56.202Z,7.28
2022-11-22T23:25:05.827Z,6.72
2022-11-22T23:27:39.923Z,6.20
2022-11-22T23:30:14.079Z,7.20
2022-11-22T23:32:48.045Z,7.57
2022-11-22T23:35:21.976Z,6.55
2022-11-22T23:37:56.104Z,7.03
2022-11-22T23:40:32.317Z,7.22
2022-11-22T23:43:06.272Z,7.43
2022-11-22T23:45:46.106Z,6.80
2022-11-22T23:48:20.143Z,7.22
2022-11-22T23:50:54.117Z,6.53
2022-11-22T23:53:28.068Z,7.55
2022-11-22T23:56:08.434Z,7.90
2022-11-22T23:58:42.580Z,7.53
